sensor_id;sensor_type;location;lat;lon;timestamp;temperature;humidity
4856;DHT22;2442;48.676;7.986;2022-08-01T00:01:47;19.50;99.90
4856;DHT22;2442;48.676;7.986;2022-08-01T00:04:13;19.50;99.90
4856;DHT22;2442;48.676;7.986;2022-08-01T00:06:41;19.60;99.90
4856;DHT22;2442;48.676;7.986;2022-08-01T00:09:08;19.30;99.90
4856;DHT22;2442;48.676;7.986;2022-08-01T00:11:35;19.20;99.90
4856;DHT22;2442;48.676;7.986;2022-08-01T00:14:02;19.20;99.90
4856;DHT22;2442;48.676;7.986;2022-08-01T00:16:29;19.20;99.90
4856;DHT22;2442;48.676;7.986;2022-08-01T00:18:56;19.10;99.90
4856;DHT22;2442;48.676;7.986;2022-08-01T00:21:23;19.10;99.90
4856;DHT22;2442;48.676;7.986;2022-08-01T00:23:51;19.00;99.90
4856;DHT22;2442;48.676;7.986;2022-08-01T00:26:17;19.00;99.90
4856;DHT22;2442;48.676;7.986;2022-08-01T00:28:44;19.10;99.90
4856;DHT22;2442;48.676;7.986;2022-08-01T00:31:11;19.00;99.90
4856;DHT22;2442;48.676;7.986;2022-08-01T00:33:38;18.90;99.90
4856;DHT22;2442;48.676;7.986;2022-08-01T00:36:05;18.90;99.90
4856;DHT22;2442;48.676;7.986;2022-08-01T00:38:31;18.70;99.90
4856;DHT22;2442;48.676;7.986;2022-08-01T00:40:59;18.70;99.90
4856;DHT22;2442;48.676;7.986;2022-08-01T00:43:26;18.50;99.90
4856;DHT22;2442;48.676;7.986;2022-08-01T00:45:53;18.50;99.90
4856;DHT22;2442;48.676;7.986;2022-08-01T00:48:20;18.40;99.90
4856;DHT22;2442;48.676;7.986;2022-08-01T00:50:47;18.40;99.90
4856;DHT22;2442;48.676;7.986;2022-08-01T00:53:14;18.40;99.90
4856;DHT22;2442;48.676;7.986;2022-08-01T00:55:41;18.30;99.90
4856;DHT22;2442;48.676;7.986;2022-08-01T00:58:09;18.20;99.90
4856;DHT22;2442;48.676;7.986;2022-08-01T01:00:36;18.10;99.90
4856;DHT22;2442;48.676;7.986;2022-08-01T01:03:03;18.10;99.90
4856;DHT22;2442;48.676;7.986;2022-08-01T01:05:36;18.10;99.90
4856;DHT22;2442;48.676;7.986;2022-08-01T01:08:11;18.20;99.90
4856;DHT22;2442;48.676;7.986;2022-08-01T01:10:45;18.10;99.90
4856;DHT22;2442;48.676;7.986;2022-08-01T01:13:19;18.00;99.90
4856;DHT22;2442;48.676;7.986;2022-08-01T01:15:51;17.90;99.90
4856;DHT22;2442;48.676;7.986;2022-08-01T01:18:24;17.90;99.90
4856;DHT22;2442;48.676;7.986;2022-08-01T01:21:00;17.90;99.90
4856;DHT22;2442;48.676;7.986;2022-08-01T01:23:44;17.70;99.90
4856;DHT22;2442;48.676;7.986;2022-08-01T01:26:25;17.60;99.90
4856;DHT22;2442;48.676;7.986;2022-08-01T01:29:05;17.60;99.90
4856;DHT22;2442;48.676;7.986;2022-08-01T01:31:36;17.50;99.90
4856;DHT22;2442;48.676;7.986;2022-08-01T01:34:06;17.30;99.90
4856;DHT22;2442;48.676;7.986;2022-08-01T01:36:35;17.20;99.90
4856;DHT22;2442;48.676;7.986;2022-08-01T01:39:02;17.10;99.90
4856;DHT22;2442;48.676;7.986;2022-08-01T01:41:30;17.00;99.90
4856;DHT22;2442;48.676;7.986;2022-08-01T01:44:01;17.00;99.90
4856;DHT22;2442;48.676;7.986;2022-08-01T01:46:31;16.90;99.90
4856;DHT22;2442;48.676;7.986;2022-08-01T01:48:59;16.90;99.90
4856;DHT22;2442;48.676;7.986;2022-08-01T01:51:28;16.80;99.90
4856;DHT22;2442;48.676;7.986;2022-08-01T01:53:57;16.80;99.90
4856;DHT22;2442;48.676;7.986;2022-08-01T01:56:25;16.80;99.90
4856;DHT22;2442;48.676;7.986;2022-08-01T01:58:56;16.70;99.90
4856;DHT22;2442;48.676;7.986;2022-08-01T02:01:28;16.70;99.90
4856;DHT22;2442;48.676;7.986;2022-08-01T02:03:56;16.60;99.90
4856;DHT22;2442;48.676;7.986;2022-08-01T02:06:25;16.60;99.90
4856;DHT22;2442;48.676;7.986;2022-08-01T02:08:54;16.60;99.90
4856;DHT22;2442;48.676;7.986;2022-08-01T02:11:21;16.70;99.90
4856;DHT22;2442;48.676;7.986;2022-08-01T02:13:53;16.80;99.90
4856;DHT22;2442;48.676;7.986;2022-08-01T02:16:23;16.70;99.90
4856;DHT22;2442;48.676;7.986;2022-08-01T02:18:52;16.70;99.90
4856;DHT22;2442;48.676;7.986;2022-08-01T02:21:25;16.60;99.90
4856;DHT22;2442;48.676;7.986;2022-08-01T02:23:54;16.50;99.90
4856;DHT22;2442;48.676;7.986;2022-08-01T02:26:22;16.40;99.90
4856;DHT22;2442;48.676;7.986;2022-08-01T02:28:53;16.40;99.90
4856;DHT22;2442;48.676;7.986;2022-08-01T02:31:22;16.40;99.90
4856;DHT22;2442;48.676;7.986;2022-08-01T02:33:57;16.30;99.90
4856;DHT22;2442;48.676;7.986;2022-08-01T02:36:26;16.20;99.90
4856;DHT22;2442;48.676;7.986;2022-08-01T02:38:55;16.20;99.90
4856;DHT22;2442;48.676;7.986;2022-08-01T02:41:24;16.20;99.90
4856;DHT22;2442;48.676;7.986;2022-08-01T02:43:53;16.20;99.90
4856;DHT22;2442;48.676;7.986;2022-08-01T02:46:28;16.20;99.90
4856;DHT22;2442;48.676;7.986;2022-08-01T02:49:00;16.20;99.90
4856;DHT22;2442;48.676;7.986;2022-08-01T02:51:30;16.20;99.90
4856;DHT22;2442;48.676;7.986;2022-08-01T02:53:59;16.10;99.90
4856;DHT22;2442;48.676;7.986;2022-08-01T02:56:27;16.10;99.90
4856;DHT22;2442;48.676;7.986;2022-08-01T02:59:02;16.10;99.90
4856;DHT22;2442;48.676;7.986;2022-08-01T03:01:32;15.90;99.90
4856;DHT22;2442;48.676;7.986;2022-08-01T03:04:02;15.90;99.90
4856;DHT22;2442;48.676;7.986;2022-08-01T03:06:30;15.80;99.90
4856;DHT22;2442;48.676;7.986;2022-08-01T03:08:58;15.80;99.90
4856;DHT22;2442;48.676;7.986;2022-08-01T03:11:27;15.80;99.90
4856;DHT22;2442;48.676;7.986;2022-08-01T03:13:55;15.80;99.90
4856;DHT22;2442;48.676;7.986;2022-08-01T03:16:24;15.70;99.90
4856;DHT22;2442;48.676;7.986;2022-08-01T03:18:53;15.80;99.90
4856;DHT22;2442;48.676;7.986;2022-08-01T03:21:23;15.60;99.90
4856;DHT22;2442;48.676;7.986;2022-08-01T03:23:51;15.70;99.90
4856;DHT22;2442;48.676;7.986;2022-08-01T03:26:24;15.60;99.90
4856;DHT22;2442;48.676;7.986;2022-08-01T03:28:55;15.60;99.90
4856;DHT22;2442;48.676;7.986;2022-08-01T03:31:24;15.60;99.90
4856;DHT22;2442;48.676;7.986;2022-08-01T03:33:51;15.60;99.90
4856;DHT22;2442;48.676;7.986;2022-08-01T03:36:21;15.60;99.90
4856;DHT22;2442;48.676;7.986;2022-08-01T03:38:52;15.70;99.90
4856;DHT22;2442;48.676;7.986;2022-08-01T03:41:24;15.60;99.90
4856;DHT22;2442;48.676;7.986;2022-08-01T03:43:56;15.60;99.90
4856;DHT22;2442;48.676;7.986;2022-08-01T03:46:28;15.50;99.90
4856;DHT22;2442;48.676;7.986;2022-08-01T03:48:59;15.50;99.90
4856;DHT22;2442;48.676;7.986;2022-08-01T03:51:27;15.50;99.90
4856;DHT22;2442;48.676;7.986;2022-08-01T03:53:58;15.50;99.90
4856;DHT22;2442;48.676;7.986;2022-08-01T03:56:26;15.50;99.90
4856;DHT22;2442;48.676;7.986;2022-08-01T03:58:56;15.40;99.90
4856;DHT22;2442;48.676;7.986;2022-08-01T04:01:23;15.40;99.90
4856;DHT22;2442;48.676;7.986;2022-08-01T04:03:50;15.30;99.90
4856;DHT22;2442;48.676;7.986;2022-08-01T04:06:17;15.30;99.90
4856;DHT22;2442;48.676;7.986;2022-08-01T04:08:44;15.40;99.90
4856;DHT22;2442;48.676;7.986;2022-08-01T04:11:23;15.40;99.90
4856;DHT22;2442;48.676;7.986;2022-08-01T04:13:51;15.60;99.90
4856;DHT22;2442;48.676;7.986;2022-08-01T04:16:19;15.60;99.90
4856;DHT22;2442;48.676;7.986;2022-08-01T04:18:46;15.70;99.90
4856;DHT22;2442;48.676;7.986;2022-08-01T04:21:13;15.80;99.90
4856;DHT22;2442;48.676;7.986;2022-08-01T04:23:41;16.10;99.90
4856;DHT22;2442;48.676;7.986;2022-08-01T04:26:11;16.20;99.90
4856;DHT22;2442;48.676;7.986;2022-08-01T04:28:41;16.20;99.90
4856;DHT22;2442;48.676;7.986;2022-08-01T04:31:10;16.30;99.90
4856;DHT22;2442;48.676;7.986;2022-08-01T04:33:40;16.40;99.90
4856;DHT22;2442;48.676;7.986;2022-08-01T04:36:10;16.40;99.90
4856;DHT22;2442;48.676;7.986;2022-08-01T04:38:37;16.50;99.90
4856;DHT22;2442;48.676;7.986;2022-08-01T04:41:06;16.50;99.90
4856;DHT22;2442;48.676;7.986;2022-08-01T04:43:34;16.60;99.90
4856;DHT22;2442;48.676;7.986;2022-08-01T04:46:03;16.60;99.90
4856;DHT22;2442;48.676;7.986;2022-08-01T04:48:31;16.50;99.90
4856;DHT22;2442;48.676;7.986;2022-08-01T04:50:59;16.50;99.90
4856;DHT22;2442;48.676;7.986;2022-08-01T04:53:26;16.50;99.90
4856;DHT22;2442;48.676;7.986;2022-08-01T04:55:53;16.50;99.90
4856;DHT22;2442;48.676;7.986;2022-08-01T04:58:21;16.50;99.90
4856;DHT22;2442;48.676;7.986;2022-08-01T05:00:48;16.60;99.90
4856;DHT22;2442;48.676;7.986;2022-08-01T05:03:16;16.60;99.90
4856;DHT22;2442;48.676;7.986;2022-08-01T05:05:43;16.70;99.90
4856;DHT22;2442;48.676;7.986;2022-08-01T05:08:10;16.70;99.90
4856;DHT22;2442;48.676;7.986;2022-08-01T05:10:37;16.90;99.90
4856;DHT22;2442;48.676;7.986;2022-08-01T05:13:03;17.00;99.90
4856;DHT22;2442;48.676;7.986;2022-08-01T05:15:31;17.10;99.90
4856;DHT22;2442;48.676;7.986;2022-08-01T05:17:58;17.20;99.90
4856;DHT22;2442;48.676;7.986;2022-08-01T05:20:26;17.20;99.90
4856;DHT22;2442;48.676;7.986;2022-08-01T05:22:53;17.30;99.90
4856;DHT22;2442;48.676;7.986;2022-08-01T05:25:20;17.40;99.90
4856;DHT22;2442;48.676;7.986;2022-08-01T05:27:49;17.40;99.90
4856;DHT22;2442;48.676;7.986;2022-08-01T05:30:16;17.60;99.90
4856;DHT22;2442;48.676;7.986;2022-08-01T05:32:42;17.70;99.90
4856;DHT22;2442;48.676;7.986;2022-08-01T05:35:09;17.80;99.90
4856;DHT22;2442;48.676;7.986;2022-08-01T05:37:37;18.00;99.90
4856;DHT22;2442;48.676;7.986;2022-08-01T05:40:05;18.10;99.90
4856;DHT22;2442;48.676;7.986;2022-08-01T05:42:32;18.20;99.90
4856;DHT22;2442;48.676;7.986;2022-08-01T05:44:59;18.30;99.90
4856;DHT22;2442;48.676;7.986;2022-08-01T05:47:26;18.40;99.90
4856;DHT22;2442;48.676;7.986;2022-08-01T05:49:52;18.60;99.90
4856;DHT22;2442;48.676;7.986;2022-08-01T05:52:19;18.70;99.90
4856;DHT22;2442;48.676;7.986;2022-08-01T05:54:47;18.90;99.90
4856;DHT22;2442;48.676;7.986;2022-08-01T05:57:14;19.10;99.90
4856;DHT22;2442;48.676;7.986;2022-08-01T05:59:41;19.20;99.90
4856;DHT22;2442;48.676;7.986;2022-08-01T06:02:08;19.50;99.90
4856;DHT22;2442;48.676;7.986;2022-08-01T06:04:34;19.80;99.90
4856;DHT22;2442;48.676;7.986;2022-08-01T06:07:01;20.00;99.90
4856;DHT22;2442;48.676;7.986;2022-08-01T06:09:28;20.40;99.90
4856;DHT22;2442;48.676;7.986;2022-08-01T06:11:57;20.80;99.90
4856;DHT22;2442;48.676;7.986;2022-08-01T06:14:24;21.10;99.90
4856;DHT22;2442;48.676;7.986;2022-08-01T06:16:51;21.40;99.90
4856;DHT22;2442;48.676;7.986;2022-08-01T06:19:18;21.70;99.90
4856;DHT22;2442;48.676;7.986;2022-08-01T06:21:44;22.00;99.90
4856;DHT22;2442;48.676;7.986;2022-08-01T06:24:11;22.30;99.90
4856;DHT22;2442;48.676;7.986;2022-08-01T06:26:38;22.70;99.90
4856;DHT22;2442;48.676;7.986;2022-08-01T06:29:06;22.60;99.90
4856;DHT22;2442;48.676;7.986;2022-08-01T06:31:33;22.80;99.90
4856;DHT22;2442;48.676;7.986;2022-08-01T06:34:00;22.90;99.90
4856;DHT22;2442;48.676;7.986;2022-08-01T06:36:26;22.90;99.90
4856;DHT22;2442;48.676;7.986;2022-08-01T06:38:53;22.90;99.90
4856;DHT22;2442;48.676;7.986;2022-08-01T06:41:20;22.90;99.90
4856;DHT22;2442;48.676;7.986;2022-08-01T06:43:47;23.00;99.90
4856;DHT22;2442;48.676;7.986;2022-08-01T06:46:15;23.10;99.90
4856;DHT22;2442;48.676;7.986;2022-08-01T06:48:42;23.20;99.90
4856;DHT22;2442;48.676;7.986;2022-08-01T06:51:08;23.20;99.90
4856;DHT22;2442;48.676;7.986;2022-08-01T06:53:39;23.20;99.90
4856;DHT22;2442;48.676;7.986;2022-08-01T06:56:06;22.90;99.90
4856;DHT22;2442;48.676;7.986;2022-08-01T06:58:34;23.00;99.90
4856;DHT22;2442;48.676;7.986;2022-08-01T07:01:01;23.00;99.90
4856;DHT22;2442;48.676;7.986;2022-08-01T07:03:30;23.20;99.90
4856;DHT22;2442;48.676;7.986;2022-08-01T07:05:57;23.40;99.90
4856;DHT22;2442;48.676;7.986;2022-08-01T07:08:24;23.50;99.90
4856;DHT22;2442;48.676;7.986;2022-08-01T07:10:51;23.50;99.90
4856;DHT22;2442;48.676;7.986;2022-08-01T07:13:17;23.50;99.90
4856;DHT22;2442;48.676;7.986;2022-08-01T07:15:46;23.60;99.90
4856;DHT22;2442;48.676;7.986;2022-08-01T07:18:13;23.50;99.90
4856;DHT22;2442;48.676;7.986;2022-08-01T07:20:41;23.60;99.90
4856;DHT22;2442;48.676;7.986;2022-08-01T07:23:08;23.60;99.90
4856;DHT22;2442;48.676;7.986;2022-08-01T07:25:35;23.70;99.90
4856;DHT22;2442;48.676;7.986;2022-08-01T07:28:02;23.90;99.90
4856;DHT22;2442;48.676;7.986;2022-08-01T07:30:29;23.70;99.90
4856;DHT22;2442;48.676;7.986;2022-08-01T07:32:56;23.70;99.90
4856;DHT22;2442;48.676;7.986;2022-08-01T07:35:22;23.70;99.90
4856;DHT22;2442;48.676;7.986;2022-08-01T07:37:51;23.70;99.90
4856;DHT22;2442;48.676;7.986;2022-08-01T07:40:19;23.90;99.90
4856;DHT22;2442;48.676;7.986;2022-08-01T07:42:46;24.10;99.90
4856;DHT22;2442;48.676;7.986;2022-08-01T07:45:13;24.20;99.90
4856;DHT22;2442;48.676;7.986;2022-08-01T07:47:40;24.20;99.90
4856;DHT22;2442;48.676;7.986;2022-08-01T07:50:08;24.30;99.90
4856;DHT22;2442;48.676;7.986;2022-08-01T07:52:34;24.30;99.90
4856;DHT22;2442;48.676;7.986;2022-08-01T07:55:03;24.30;99.90
4856;DHT22;2442;48.676;7.986;2022-08-01T07:57:30;24.60;99.90
4856;DHT22;2442;48.676;7.986;2022-08-01T07:59:57;24.80;99.90
4856;DHT22;2442;48.676;7.986;2022-08-01T08:02:24;25.10;99.90
4856;DHT22;2442;48.676;7.986;2022-08-01T08:04:50;25.20;99.90
4856;DHT22;2442;48.676;7.986;2022-08-01T08:07:17;25.30;99.90
4856;DHT22;2442;48.676;7.986;2022-08-01T08:09:44;25.40;99.90
4856;DHT22;2442;48.676;7.986;2022-08-01T08:12:12;25.50;99.90
4856;DHT22;2442;48.676;7.986;2022-08-01T08:14:39;25.90;99.90
4856;DHT22;2442;48.676;7.986;2022-08-01T08:17:06;25.60;99.90
4856;DHT22;2442;48.676;7.986;2022-08-01T08:19:33;25.70;99.90
4856;DHT22;2442;48.676;7.986;2022-08-01T08:22:03;25.30;99.90
4856;DHT22;2442;48.676;7.986;2022-08-01T08:24:29;25.00;99.90
4856;DHT22;2442;48.676;7.986;2022-08-01T08:26:58;25.40;99.90
4856;DHT22;2442;48.676;7.986;2022-08-01T08:29:27;25.40;99.90
4856;DHT22;2442;48.676;7.986;2022-08-01T08:31:55;25.70;99.90
4856;DHT22;2442;48.676;7.986;2022-08-01T08:34:23;25.60;99.90
4856;DHT22;2442;48.676;7.986;2022-08-01T08:36:50;26.00;99.90
4856;DHT22;2442;48.676;7.986;2022-08-01T08:39:17;26.20;99.90
4856;DHT22;2442;48.676;7.986;2022-08-01T08:41:44;26.30;99.90
4856;DHT22;2442;48.676;7.986;2022-08-01T08:44:11;26.10;99.90
4856;DHT22;2442;48.676;7.986;2022-08-01T08:46:42;25.90;99.90
4856;DHT22;2442;48.676;7.986;2022-08-01T08:49:10;25.70;99.90
4856;DHT22;2442;48.676;7.986;2022-08-01T08:51:38;25.80;99.90
4856;DHT22;2442;48.676;7.986;2022-08-01T08:54:06;26.00;99.90
4856;DHT22;2442;48.676;7.986;2022-08-01T08:56:34;26.10;99.90
4856;DHT22;2442;48.676;7.986;2022-08-01T08:59:02;26.10;99.90
4856;DHT22;2442;48.676;7.986;2022-08-01T09:01:30;26.00;99.90
4856;DHT22;2442;48.676;7.986;2022-08-01T09:04:00;25.90;99.90
4856;DHT22;2442;48.676;7.986;2022-08-01T09:06:27;26.00;99.90
4856;DHT22;2442;48.676;7.986;2022-08-01T09:08:55;26.10;99.90
4856;DHT22;2442;48.676;7.986;2022-08-01T09:11:22;26.40;99.90
4856;DHT22;2442;48.676;7.986;2022-08-01T09:14:02;26.30;99.90
4856;DHT22;2442;48.676;7.986;2022-08-01T09:16:30;26.50;99.90
4856;DHT22;2442;48.676;7.986;2022-08-01T09:19:09;26.70;99.90
4856;DHT22;2442;48.676;7.986;2022-08-01T09:21:36;27.20;99.90
4856;DHT22;2442;48.676;7.986;2022-08-01T09:24:12;27.20;99.90
4856;DHT22;2442;48.676;7.986;2022-08-01T09:26:39;27.30;99.90
4856;DHT22;2442;48.676;7.986;2022-08-01T09:29:08;27.30;99.90
4856;DHT22;2442;48.676;7.986;2022-08-01T09:31:44;27.40;99.90
4856;DHT22;2442;48.676;7.986;2022-08-01T09:34:13;27.40;99.90
4856;DHT22;2442;48.676;7.986;2022-08-01T09:36:45;27.70;99.90
4856;DHT22;2442;48.676;7.986;2022-08-01T09:39:15;27.70;99.90
4856;DHT22;2442;48.676;7.986;2022-08-01T09:41:42;28.00;99.90
4856;DHT22;2442;48.676;7.986;2022-08-01T09:44:09;27.50;99.90
4856;DHT22;2442;48.676;7.986;2022-08-01T09:46:35;27.60;99.90
4856;DHT22;2442;48.676;7.986;2022-08-01T09:49:04;27.50;99.90
4856;DHT22;2442;48.676;7.986;2022-08-01T09:51:34;27.70;99.90
4856;DHT22;2442;48.676;7.986;2022-08-01T09:54:03;28.00;99.90
4856;DHT22;2442;48.676;7.986;2022-08-01T09:56:37;28.30;99.90
4856;DHT22;2442;48.676;7.986;2022-08-01T09:59:04;28.30;99.90
4856;DHT22;2442;48.676;7.986;2022-08-01T10:01:43;27.50;99.90
4856;DHT22;2442;48.676;7.986;2022-08-01T10:04:12;27.60;99.90
4856;DHT22;2442;48.676;7.986;2022-08-01T10:06:42;28.00;99.90
4856;DHT22;2442;48.676;7.986;2022-08-01T10:09:10;28.10;99.90
4856;DHT22;2442;48.676;7.986;2022-08-01T10:11:39;28.40;99.90
4856;DHT22;2442;48.676;7.986;2022-08-01T10:14:07;28.60;99.90
4856;DHT22;2442;48.676;7.986;2022-08-01T10:16:34;28.60;99.90
4856;DHT22;2442;48.676;7.986;2022-08-01T10:19:03;28.80;99.90
4856;DHT22;2442;48.676;7.986;2022-08-01T10:21:32;28.10;99.90
4856;DHT22;2442;48.676;7.986;2022-08-01T10:24:02;27.80;99.90
4856;DHT22;2442;48.676;7.986;2022-08-01T10:26:32;27.90;99.90
4856;DHT22;2442;48.676;7.986;2022-08-01T10:29:00;28.50;99.90
4856;DHT22;2442;48.676;7.986;2022-08-01T10:31:27;28.90;99.90
4856;DHT22;2442;48.676;7.986;2022-08-01T10:33:58;28.80;99.90
4856;DHT22;2442;48.676;7.986;2022-08-01T10:36:27;28.20;99.90
4856;DHT22;2442;48.676;7.986;2022-08-01T10:38:55;28.30;99.90
4856;DHT22;2442;48.676;7.986;2022-08-01T10:41:24;28.70;99.90
4856;DHT22;2442;48.676;7.986;2022-08-01T10:43:51;28.30;99.90
4856;DHT22;2442;48.676;7.986;2022-08-01T10:46:19;27.60;99.90
4856;DHT22;2442;48.676;7.986;2022-08-01T10:48:50;27.30;99.90
4856;DHT22;2442;48.676;7.986;2022-08-01T10:51:19;27.10;99.90
4856;DHT22;2442;48.676;7.986;2022-08-01T10:53:48;27.30;99.90
4856;DHT22;2442;48.676;7.986;2022-08-01T10:56:16;27.50;99.90
4856;DHT22;2442;48.676;7.986;2022-08-01T10:58:46;28.00;99.90
4856;DHT22;2442;48.676;7.986;2022-08-01T11:01:19;27.90;99.90
4856;DHT22;2442;48.676;7.986;2022-08-01T11:04:07;28.00;99.90
4856;DHT22;2442;48.676;7.986;2022-08-01T11:07:02;28.10;99.90
4856;DHT22;2442;48.676;7.986;2022-08-01T11:09:31;27.70;99.90
4856;DHT22;2442;48.676;7.986;2022-08-01T11:12:06;27.90;99.90
4856;DHT22;2442;48.676;7.986;2022-08-01T11:17:53;28.30;99.90
4856;DHT22;2442;48.676;7.986;2022-08-01T11:20:22;28.30;99.90
4856;DHT22;2442;48.676;7.986;2022-08-01T11:23:23;28.70;99.90
4856;DHT22;2442;48.676;7.986;2022-08-01T11:26:08;29.10;99.90
4856;DHT22;2442;48.676;7.986;2022-08-01T11:28:35;29.50;99.90
4856;DHT22;2442;48.676;7.986;2022-08-01T11:31:26;29.50;99.90
4856;DHT22;2442;48.676;7.986;2022-08-01T11:33:53;29.50;99.90
4856;DHT22;2442;48.676;7.986;2022-08-01T11:36:20;29.20;99.90
4856;DHT22;2442;48.676;7.986;2022-08-01T11:38:50;28.40;99.90
4856;DHT22;2442;48.676;7.986;2022-08-01T11:41:36;28.00;99.90
4856;DHT22;2442;48.676;7.986;2022-08-01T11:44:05;28.10;99.90
4856;DHT22;2442;48.676;7.986;2022-08-01T11:46:50;28.20;99.90
4856;DHT22;2442;48.676;7.986;2022-08-01T11:49:29;28.50;99.90
4856;DHT22;2442;48.676;7.986;2022-08-01T11:51:59;28.60;99.90
4856;DHT22;2442;48.676;7.986;2022-08-01T11:54:27;28.10;99.90
4856;DHT22;2442;48.676;7.986;2022-08-01T11:56:55;28.10;99.90
4856;DHT22;2442;48.676;7.986;2022-08-01T11:59:22;28.30;99.90
4856;DHT22;2442;48.676;7.986;2022-08-01T12:01:51;28.40;99.90
4856;DHT22;2442;48.676;7.986;2022-08-01T12:04:18;28.60;99.90
4856;DHT22;2442;48.676;7.986;2022-08-01T12:06:45;28.90;99.90
4856;DHT22;2442;48.676;7.986;2022-08-01T12:09:16;28.90;99.90
4856;DHT22;2442;48.676;7.986;2022-08-01T12:11:44;29.10;99.90
4856;DHT22;2442;48.676;7.986;2022-08-01T12:14:16;29.40;99.90
4856;DHT22;2442;48.676;7.986;2022-08-01T12:16:50;29.40;99.90
4856;DHT22;2442;48.676;7.986;2022-08-01T12:19:22;29.50;99.90
4856;DHT22;2442;48.676;7.986;2022-08-01T12:22:10;29.40;99.90
4856;DHT22;2442;48.676;7.986;2022-08-01T12:24:40;29.40;99.90
4856;DHT22;2442;48.676;7.986;2022-08-01T12:27:08;29.50;99.90
4856;DHT22;2442;48.676;7.986;2022-08-01T12:29:38;29.80;99.90
4856;DHT22;2442;48.676;7.986;2022-08-01T12:32:21;30.00;99.90
4856;DHT22;2442;48.676;7.986;2022-08-01T12:34:48;29.90;99.90
4856;DHT22;2442;48.676;7.986;2022-08-01T12:37:16;29.60;99.90
4856;DHT22;2442;48.676;7.986;2022-08-01T12:39:44;29.50;99.90
4856;DHT22;2442;48.676;7.986;2022-08-01T12:42:11;29.50;99.90
4856;DHT22;2442;48.676;7.986;2022-08-01T12:44:39;29.40;99.90
4856;DHT22;2442;48.676;7.986;2022-08-01T12:47:08;29.70;99.90
4856;DHT22;2442;48.676;7.986;2022-08-01T12:49:36;29.70;99.90
4856;DHT22;2442;48.676;7.986;2022-08-01T12:52:04;29.70;99.90
4856;DHT22;2442;48.676;7.986;2022-08-01T12:54:42;29.80;99.90
4856;DHT22;2442;48.676;7.986;2022-08-01T12:57:25;29.70;99.90
4856;DHT22;2442;48.676;7.986;2022-08-01T12:59:53;29.60;99.90
4856;DHT22;2442;48.676;7.986;2022-08-01T13:02:31;29.20;99.90
4856;DHT22;2442;48.676;7.986;2022-08-01T13:04:58;28.80;99.90
4856;DHT22;2442;48.676;7.986;2022-08-01T13:07:35;28.80;99.90
4856;DHT22;2442;48.676;7.986;2022-08-01T13:10:02;29.30;99.90
4856;DHT22;2442;48.676;7.986;2022-08-01T13:12:29;29.90;99.90
4856;DHT22;2442;48.676;7.986;2022-08-01T13:14:56;30.20;99.90
4856;DHT22;2442;48.676;7.986;2022-08-01T13:17:33;30.10;99.90
4856;DHT22;2442;48.676;7.986;2022-08-01T13:20:01;30.00;99.90
4856;DHT22;2442;48.676;7.986;2022-08-01T13:22:32;30.20;99.90
4856;DHT22;2442;48.676;7.986;2022-08-01T13:25:10;30.40;99.90
4856;DHT22;2442;48.676;7.986;2022-08-01T13:27:37;30.10;99.90
4856;DHT22;2442;48.676;7.986;2022-08-01T13:30:11;29.60;99.90
4856;DHT22;2442;48.676;7.986;2022-08-01T13:32:40;28.90;99.90
4856;DHT22;2442;48.676;7.986;2022-08-01T13:35:10;28.60;99.90
4856;DHT22;2442;48.676;7.986;2022-08-01T13:37:38;28.70;99.90
4856;DHT22;2442;48.676;7.986;2022-08-01T13:40:06;28.70;99.90
4856;DHT22;2442;48.676;7.986;2022-08-01T13:42:33;28.70;99.90
4856;DHT22;2442;48.676;7.986;2022-08-01T13:45:00;28.90;99.90
4856;DHT22;2442;48.676;7.986;2022-08-01T13:47:27;29.00;99.90
4856;DHT22;2442;48.676;7.986;2022-08-01T13:49:55;28.90;99.90
4856;DHT22;2442;48.676;7.986;2022-08-01T13:52:25;28.80;99.90
4856;DHT22;2442;48.676;7.986;2022-08-01T13:54:52;28.60;99.90
4856;DHT22;2442;48.676;7.986;2022-08-01T13:57:19;28.50;99.90
4856;DHT22;2442;48.676;7.986;2022-08-01T13:59:47;28.50;99.90
4856;DHT22;2442;48.676;7.986;2022-08-01T14:02:14;28.30;99.90
4856;DHT22;2442;48.676;7.986;2022-08-01T14:04:41;28.30;99.90
4856;DHT22;2442;48.676;7.986;2022-08-01T14:07:09;28.50;99.90
4856;DHT22;2442;48.676;7.986;2022-08-01T14:09:35;28.40;99.90
4856;DHT22;2442;48.676;7.986;2022-08-01T14:12:03;28.30;99.90
4856;DHT22;2442;48.676;7.986;2022-08-01T14:14:31;28.20;99.90
4856;DHT22;2442;48.676;7.986;2022-08-01T14:16:58;28.20;99.90
4856;DHT22;2442;48.676;7.986;2022-08-01T14:19:25;28.10;99.90
4856;DHT22;2442;48.676;7.986;2022-08-01T14:21:51;28.20;99.90
4856;DHT22;2442;48.676;7.986;2022-08-01T14:24:20;28.30;99.90
4856;DHT22;2442;48.676;7.986;2022-08-01T14:26:46;28.40;99.90
4856;DHT22;2442;48.676;7.986;2022-08-01T14:29:13;28.60;99.90
4856;DHT22;2442;48.676;7.986;2022-08-01T14:31:40;28.40;99.90
4856;DHT22;2442;48.676;7.986;2022-08-01T14:34:07;28.30;99.90
4856;DHT22;2442;48.676;7.986;2022-08-01T14:36:34;28.40;99.90
4856;DHT22;2442;48.676;7.986;2022-08-01T14:39:01;28.20;99.90
4856;DHT22;2442;48.676;7.986;2022-08-01T14:41:29;28.30;99.90
4856;DHT22;2442;48.676;7.986;2022-08-01T14:43:55;28.30;99.90
4856;DHT22;2442;48.676;7.986;2022-08-01T14:46:22;28.30;99.90
4856;DHT22;2442;48.676;7.986;2022-08-01T14:48:49;28.20;99.90
4856;DHT22;2442;48.676;7.986;2022-08-01T14:51:16;28.20;99.90
4856;DHT22;2442;48.676;7.986;2022-08-01T14:53:43;28.10;99.90
4856;DHT22;2442;48.676;7.986;2022-08-01T14:56:09;28.10;99.90
4856;DHT22;2442;48.676;7.986;2022-08-01T14:58:37;28.10;99.90
4856;DHT22;2442;48.676;7.986;2022-08-01T15:01:04;28.20;99.90
4856;DHT22;2442;48.676;7.986;2022-08-01T15:03:31;28.10;99.90
4856;DHT22;2442;48.676;7.986;2022-08-01T15:05:58;28.10;99.90
4856;DHT22;2442;48.676;7.986;2022-08-01T15:08:25;28.10;99.90
4856;DHT22;2442;48.676;7.986;2022-08-01T15:10:52;28.20;99.90
4856;DHT22;2442;48.676;7.986;2022-08-01T15:13:19;28.10;99.90
4856;DHT22;2442;48.676;7.986;2022-08-01T15:15:47;28.30;99.90
4856;DHT22;2442;48.676;7.986;2022-08-01T15:18:14;28.30;99.90
4856;DHT22;2442;48.676;7.986;2022-08-01T15:20:41;28.30;99.90
4856;DHT22;2442;48.676;7.986;2022-08-01T15:23:07;28.20;99.90
4856;DHT22;2442;48.676;7.986;2022-08-01T15:25:34;28.20;99.90
4856;DHT22;2442;48.676;7.986;2022-08-01T15:28:01;27.80;99.90
4856;DHT22;2442;48.676;7.986;2022-08-01T15:30:28;27.70;99.90
4856;DHT22;2442;48.676;7.986;2022-08-01T15:32:56;27.70;99.90
4856;DHT22;2442;48.676;7.986;2022-08-01T15:35:23;27.70;99.90
4856;DHT22;2442;48.676;7.986;2022-08-01T15:37:50;27.70;99.90
4856;DHT22;2442;48.676;7.986;2022-08-01T15:40:17;27.80;99.90
4856;DHT22;2442;48.676;7.986;2022-08-01T15:42:44;27.70;99.90
4856;DHT22;2442;48.676;7.986;2022-08-01T15:45:12;27.80;99.90
4856;DHT22;2442;48.676;7.986;2022-08-01T15:47:42;27.90;99.90
4856;DHT22;2442;48.676;7.986;2022-08-01T15:50:10;27.90;99.90
4856;DHT22;2442;48.676;7.986;2022-08-01T15:52:37;27.90;99.90
4856;DHT22;2442;48.676;7.986;2022-08-01T15:55:04;27.90;99.90
4856;DHT22;2442;48.676;7.986;2022-08-01T15:57:31;28.00;99.90
4856;DHT22;2442;48.676;7.986;2022-08-01T15:59:58;28.20;99.90
4856;DHT22;2442;48.676;7.986;2022-08-01T16:02:25;28.40;99.90
4856;DHT22;2442;48.676;7.986;2022-08-01T16:04:52;28.40;99.90
4856;DHT22;2442;48.676;7.986;2022-08-01T16:07:20;28.30;99.90
4856;DHT22;2442;48.676;7.986;2022-08-01T16:09:47;28.30;99.90
4856;DHT22;2442;48.676;7.986;2022-08-01T16:12:14;28.30;99.90
4856;DHT22;2442;48.676;7.986;2022-08-01T16:14:41;27.90;99.90
4856;DHT22;2442;48.676;7.986;2022-08-01T16:17:08;27.70;99.90